Historyczne dane pomiarowe

Dodano dane terminowe – wersja testowa.

Dane z okresu 1951-2019

Wersja bazy: 1.34 [2019-03-16, lista zmian], aktualizacja planowana na 2019-04-15

Dane meteo z obszaru Polski uzyskane na podstawie danych udostępnionych przez Instytut Meteorologii i Gospodarki Wodnej – Państwowy Instytut Badawczy.

 

Wybierz Datę:    

       

TemperaturaWilgotnośćWiatrCiśnienieOpadyŚniegCzas trwania zjawisk
 Stacja t tx tn tng RH VA  wxwx mslp ppp RRR   cm mm wxwxwxwxwxwxwx
1956-11-09 -5.7 3.2-10.6-13.7 71.3- 5.3 1.3---- 0.1------------
1956-11-08 -5.9 -2.3 -8.1 -8.8 67.0- 2.0 3.0---- 0.0-- 1---------
1956-11-07 -2.2 1.7 -4.8 -6.8 68.3- 3.7 3.0---- 0.2------------
1956-11-06 -0.4 3.0 -1.7 -2.2 78.0- 2.3 4.3---- 0.4------------
1956-11-05 0.3 2.6 -5.6 -9.3 81.8- 5.3 3.3---- 1.4------------
1956-11-04 -2.2 1.8 -4.8 -9.3 81.8- 3.7 0.7---- 0.0------------
1956-11-03 -1.8 -0.4 -8.1 -9.1 88.8- 7.3 1.3---- 0.5------------
1956-11-02 -3.1 0.4 -5.8 -5.3 85.0- 5.3 2.0---- 0.4------------
1956-11-01 -1.0 2.6 -9.5-11.7 55.8- 3.3 4.7---- 0.0------------
1956-10-31 -5.2 -0.9 -6.7 -4.0 70.0- 3.3 3.3---- 0.0------------
1956-10-30 0.8 4.4 -1.5 -1.4 87.3- 8.0 3.0---- 0.1------------
1956-10-29 6.2 12.2 3.6 0.0 76.8- 4.3 2.0---- 0.8------------
1956-10-28 10.7 12.7 8.5 8.2 90.3- 8.0 2.7---- 5.5------------
1956-10-27 8.0 10.6 2.5 0.8 89.3- 8.0 3.7---- 0.6------------
1956-10-26 9.8 16.5 3.0 -0.2 81.8- 0.0 2.0---- 0.0------------
1956-10-25 8.5 16.5 1.8 -0.2 84.0- 0.0 1.3---- 0.0------------
1956-10-24 10.4 15.1 3.6 -0.7 81.5- 3.7 2.3---- 0.0------------
1956-10-23 9.7 11.8 7.3 4.3 87.0- 8.0 2.0---- 0.0------------
1956-10-22 9.7 13.2 8.2 5.0 90.0- 5.3 2.3---- 0.0------------
1956-10-21 11.0 14.1 7.0 4.3 92.0- 7.3 1.3---- 0.0------------
1956-10-20 10.0 11.5 8.9 7.0 91.0- 7.0 1.0---- 0.0------------
1956-10-19 10.4 12.3 8.2 6.9 85.3- 8.0 4.0---- 0.5------------
1956-10-18 8.2 13.2 -1.5 -4.8 73.3- 5.0 2.0---- 3.5------------
1956-10-17 3.2 11.0 -3.5 -4.5 78.5- 0.3 0.7---- 0.0------------
1956-10-16 2.6 8.5 -0.2 -3.6 83.5- 4.0 2.3---- 0.0------------
1956-10-15 5.0 10.6 1.0 -0.7 79.3- 3.3 3.0---- 0.0------------
1956-10-14 7.4 10.0 5.0 7.4 78.5- 4.0 9.7---- 0.0------------
1956-10-13 9.5 10.3 6.3 3.3 75.8- 8.0 10.0---- 3.9------------
1956-10-12 9.0 10.9 6.2 5.6 80.0- 5.0 5.0---- 0.0------------
1956-10-11 6.1 9.0 -3.1 -4.8 74.8- 7.3 2.3---- 0.0------------
1956-10-10 2.3 7.1 0.1 -1.5 79.0- 1.7 2.7---- 0.0------------
1956-10-09 4.7 11.3 -0.9 -2.2 79.0- 3.0 1.0---- 0.0------------
1956-10-08 4.1 9.7 1.8 -0.2 86.3- 2.0 2.0---- 0.0------------
1956-10-07 5.5 6.6 1.3 0.8 85.3- 5.3 14.0---- 1.4------------
1956-10-06 7.9 13.8 4.4 5.6 90.0- 8.0 5.7---- 19.2------------
1956-10-05 11.0 15.3 6.7 5.6 87.8- 3.7 1.7---- 0.1------------
1956-10-04 8.8 15.7 7.9 4.2 93.0- 5.3 1.3---- 20.4------------
1956-10-03 16.5 24.2 13.3 8.5 72.5- 4.7 4.7---- 0.0------------
1956-10-02 18.0 25.4 10.3 5.8 70.0- 0.0 3.3---- 0.0------------
1956-10-01 14.4 23.2 4.0 1.0 82.5- 1.0 2.0---- 0.0------------
1956-09-30 13.3 20.2 9.5 8.1 81.0- 2.7 2.0---- 0.0------------
1956-09-29 15.7 21.2 11.0 6.9 80.3- 8.0 4.0---- 0.0------------
1956-09-28 15.1 20.2 13.0 7.7 82.0- 4.7 2.3---- 0.1------------
1956-09-27 14.0 22.3 3.2 0.2 64.8- 5.3 2.3---- 0.0------------
1956-09-26 12.2 22.6 2.0 -0.3 73.3- 0.0 2.0---- 0.0------------
1956-09-25 9.6 18.8 0.5 -3.2 73.3- 1.0 2.7---- 0.0------------
1956-09-24 6.5 14.1 0.4 -2.2 68.5- 0.0 5.0---- 0.0------------
1956-09-23 8.3 15.2 5.2 1.0 81.3- 5.3 3.0---- 0.0------------
1956-09-22 10.9 20.0 4.0 0.8 77.8- 0.0 1.7---- 0.0------------
1956-09-21 10.2 18.6 4.8 1.5 80.5- 1.0 0.7---- 0.0------------
1956-09-20 8.2 17.2 0.7 -0.6 78.8- 3.0 1.7---- 0.0------------
1956-09-19 7.4 15.3 1.1 -1.7 82.0- 1.3 1.0---- 0.0------------
1956-09-18 8.1 10.8 4.3 2.3 83.0- 7.0 3.3---- 0.1------------
1956-09-17 8.7 13.3 6.2 7.0 78.3- 7.0 5.0---- 3.9------------
1956-09-16 11.3 14.6 8.5 5.4 73.3- 6.3 4.0---- 0.0------------
1956-09-15 10.5 15.4 2.9 1.2 84.3- 4.3 3.3---- 0.0------------
1956-09-14 8.5 12.6 6.5 5.5 82.3- 4.7 5.3---- 0.0------------
1956-09-13 8.4 12.8 6.5 5.1 84.8- 7.0 4.0---- 1.2------------
1956-09-12 10.8 13.6 9.1 7.7 92.8- 8.0 2.3---- 14.9------------
1956-09-11 13.2 17.1 11.0 7.8 92.0- 8.0 3.0---- 2.7------------
204.2 ms

 

Źródłem pochodzenia danych jest Instytut Meteorologii i Gospodarki Wodnej – Państwowy Instytut Badawczy. Dane Instytutu Meteorologii i Gospodarki Wodnej – Państwowego Instytutu Badawczego zostały przetworzone.

Dane źródłowe można odnaleźć na stronie https://dane.imgw.pl